Time;durP1;ratioP1;P1;durP2;ratioP2;P2;SDS_P1;SDS_P2;PMS_P1;PMS_P2;Temp;Humidity;BMP_temperature;BMP_pressure;BME280_temperature;BME280_humidity;BME280_pressure;Samples;Min_cycle;Max_cycle;Signal;HPM_P1;HPM_P2
2021/10/26 00:02:25;;;;;;;24.25;8.88;;;;;;;22.47;17.63;98738.00;5067244;28;20028;-82
2021/10/26 00:04:51;;;;;;;25.27;9.02;;;;;;;22.40;17.65;98744.44;5067448;28;20032;-82
2021/10/26 00:07:17;;;;;;;18.92;8.35;;;;;;;22.11;17.93;98747.72;5068411;28;20059;-82
2021/10/26 00:09:43;;;;;;;20.63;6.93;;;;;;;22.22;17.79;98740.09;5065625;28;20494;-81
2021/10/26 00:12:10;;;;;;;16.70;6.53;;;;;;;22.13;18.16;98726.53;5066312;28;20517;-82
2021/10/26 00:14:36;;;;;;;16.73;6.97;;;;;;;22.18;18.03;98733.72;5069240;28;20028;-82
2021/10/26 00:17:02;;;;;;;18.08;8.10;;;;;;;21.83;18.61;98732.59;5065830;28;20028;-82
2021/10/26 00:19:28;;;;;;;19.13;7.70;;;;;;;21.53;19.13;98731.47;5065471;28;20036;-82
2021/10/26 00:21:54;;;;;;;20.45;7.30;;;;;;;21.34;19.01;98736.25;5070444;28;20042;-82
2021/10/26 00:24:21;;;;;;;20.05;8.63;;;;;;;21.64;18.85;98737.81;5059799;28;20043;-82
2021/10/26 00:26:48;;;;;;;23.48;10.15;;;;;;;21.85;18.46;98729.41;5066510;28;20067;-82
2021/10/26 00:29:14;;;;;;;17.20;6.78;;;;;;;21.88;18.04;98725.81;5066995;28;20029;-82
2021/10/26 00:31:41;;;;;;;19.13;7.72;;;;;;;22.17;17.75;98718.16;5075052;28;20466;-82
2021/10/26 00:34:07;;;;;;;22.27;8.70;;;;;;;22.26;17.67;98726.91;5066973;28;20033;-81
2021/10/26 00:36:34;;;;;;;16.40;6.38;;;;;;;22.25;17.47;98722.50;5069143;28;20498;-81
2021/10/26 00:39:00;;;;;;;19.00;8.38;;;;;;;22.41;17.52;98720.81;5068498;28;20032;-81
2021/10/26 00:41:27;;;;;;;18.98;8.25;;;;;;;22.49;17.10;98724.38;5062938;28;20094;-81
2021/10/26 00:43:53;;;;;;;18.90;7.93;;;;;;;22.18;17.58;98722.53;5065944;28;20033;-81
2021/10/26 00:46:31;;;;;;;23.67;9.32;;;;;;;21.25;18.92;98730.28;5079057;28;20041;-82
2021/10/26 00:48:59;;;;;;;16.17;6.90;;;;;;;20.95;19.18;98727.06;5068017;28;20082;-81
2021/10/26 00:51:26;;;;;;;21.05;8.30;;;;;;;21.25;18.45;98727.50;5070080;28;20367;-82
2021/10/26 00:53:53;;;;;;;18.33;7.72;;;;;;;21.31;18.89;98720.28;5069656;28;20024;-82
2021/10/26 00:56:20;;;;;;;17.25;8.63;;;;;;;21.19;18.65;98717.13;5054778;28;20027;-82
2021/10/26 00:58:46;;;;;;;17.42;7.22;;;;;;;21.23;18.45;98724.31;5068793;28;20017;-81
2021/10/26 01:01:12;;;;;;;17.35;7.75;;;;;;;21.51;18.17;98729.06;5070825;28;20067;-82
2021/10/26 01:03:38;;;;;;;18.58;7.45;;;;;;;21.69;18.28;98723.44;5068454;28;20036;-82
2021/10/26 01:06:04;;;;;;;17.50;7.05;;;;;;;22.02;17.77;98726.59;5070207;28;20408;-81
2021/10/26 01:08:31;;;;;;;20.27;8.20;;;;;;;22.03;17.34;98713.41;5066170;28;20028;-82
2021/10/26 01:10:58;;;;;;;19.60;9.05;;;;;;;21.75;17.54;98719.06;5071598;28;20116;-82
2021/10/26 01:13:25;;;;;;;18.77;8.15;;;;;;;21.51;17.72;98720.69;5065939;28;20040;-82
2021/10/26 01:15:54;;;;;;;17.77;7.57;;;;;;;21.59;17.92;98721.44;5069130;28;20040;-82
2021/10/26 01:18:20;;;;;;;25.80;7.82;;;;;;;21.58;17.97;98719.88;5069972;28;20116;-81
2021/10/26 01:20:47;;;;;;;20.05;7.68;;;;;;;21.60;17.79;98714.69;5093428;28;20051;-81
2021/10/26 01:23:13;;;;;;;17.17;8.40;;;;;;;21.72;17.71;98717.84;5097151;28;20039;-82
2021/10/26 01:25:40;;;;;;;21.25;8.73;;;;;;;21.87;17.82;98719.44;5066271;28;20405;-82
2021/10/26 01:28:06;;;;;;;23.88;9.23;;;;;;;21.85;17.92;98715.44;5066700;28;20390;-82
2021/10/26 01:30:34;;;;;;;19.90;7.90;;;;;;;21.80;18.03;98724.22;5070026;28;20021;-82
2021/10/26 01:33:04;;;;;;;21.48;8.95;;;;;;;21.75;17.93;98719.81;5074222;28;20056;-82
2021/10/26 01:35:31;;;;;;;18.70;7.80;;;;;;;21.95;17.60;98725.81;5073478;28;20029;-82
2021/10/26 01:37:58;;;;;;;16.08;7.45;;;;;;;21.89;17.36;98727.44;5071527;28;20107;-81
2021/10/26 01:40:24;;;;;;;17.45;8.15;;;;;;;21.34;17.70;98727.09;5074260;28;20413;-81
2021/10/26 01:42:51;;;;;;;18.75;9.65;;;;;;;20.90;18.54;98737.81;5071242;28;20070;-82
2021/10/26 01:45:17;;;;;;;18.98;7.60;;;;;;;20.76;18.48;98733.00;5067515;28;20031;-82
2021/10/26 01:47:44;;;;;;;17.73;7.18;;;;;;;21.08;18.19;98733.06;5072653;28;20029;-82
2021/10/26 01:50:12;;;;;;;21.25;7.75;;;;;;;21.43;17.83;98729.47;5072104;28;20074;-82
2021/10/26 01:52:39;;;;;;;19.55;7.90;;;;;;;21.50;18.00;98727.47;5066179;28;20547;-81
2021/10/26 01:55:06;;;;;;;20.20;7.90;;;;;;;21.62;17.63;98734.63;5069349;28;20082;-81
2021/10/26 01:57:33;;;;;;;15.90;6.63;;;;;;;21.68;17.92;98733.81;5070431;28;20477;-82
2021/10/26 02:00:01;;;;;;;17.50;8.20;;;;;;;21.63;17.51;98730.66;5065745;28;20036;-82
2021/10/26 02:02:27;;;;;;;17.80;7.22;;;;;;;21.15;17.87;98722.69;5071178;28;20087;-82
2021/10/26 02:04:53;;;;;;;17.95;8.30;;;;;;;21.13;18.13;98733.47;5065193;28;20112;-81
2021/10/26 02:07:19;;;;;;;16.40;7.20;;;;;;;21.14;18.02;98737.84;5064593;28;20059;-82
2021/10/26 02:09:45;;;;;;;13.98;6.68;;;;;;;21.41;17.76;98731.84;5065765;28;20037;-82
2021/10/26 02:12:12;;;;;;;16.70;7.63;;;;;;;21.50;18.04;98726.66;5066744;28;20040;-82
2021/10/26 02:14:38;;;;;;;13.63;6.38;;;;;;;21.50;17.78;98726.66;5055925;28;20039;-82
2021/10/26 02:17:04;;;;;;;13.18;5.95;;;;;;;21.70;17.35;98725.06;5066167;28;20044;-82
2021/10/26 02:19:31;;;;;;;14.88;6.25;;;;;;;21.78;17.11;98721.81;5056133;28;20397;-82
2021/10/26 02:21:57;;;;;;;14.35;6.70;;;;;;;21.90;17.02;98717.84;5068356;28;20386;-82
2021/10/26 02:24:24;;;;;;;15.27;5.85;;;;;;;21.84;16.96;98727.84;5069785;28;20039;-82
2021/10/26 02:26:50;;;;;;;13.85;6.15;;;;;;;21.86;17.29;98725.44;5070419;28;20121;-81
2021/10/26 02:29:16;;;;;;;13.80;6.28;;;;;;;21.50;17.25;98730.25;5068950;28;20066;-81
2021/10/26 02:31:42;;;;;;;15.57;6.38;;;;;;;21.39;17.89;98725.88;5072695;28;20497;-81
2021/10/26 02:34:09;;;;;;;14.70;6.35;;;;;;;21.12;18.37;98736.69;5064383;28;20501;-81
2021/10/26 02:36:35;;;;;;;12.98;6.35;;;;;;;21.09;18.30;98732.69;5069591;28;20070;-82
2021/10/26 02:39:06;;;;;;;16.65;6.85;;;;;;;21.31;18.31;98739.03;5069406;28;20116;-82
2021/10/26 02:41:32;;;;;;;14.80;6.78;;;;;;;21.14;18.27;98740.63;5070669;28;20028;-82
2021/10/26 02:43:59;;;;;;;16.42;7.50;;;;;;;21.10;18.30;98741.84;5065498;28;20508;-82
2021/10/26 02:46:25;;;;;;;17.17;6.65;;;;;;;21.10;18.26;98739.84;5074516;28;20058;-82
2021/10/26 02:48:51;;;;;;;12.25;5.68;;;;;;;21.19;18.31;98734.66;5069649;28;20032;-82
2021/10/26 02:51:17;;;;;;;15.95;6.28;;;;;;;21.48;18.01;98741.03;5068747;28;20387;-82
2021/10/26 02:53:44;;;;;;;12.23;5.68;;;;;;;21.25;17.75;98741.47;5053268;28;20498;-82
2021/10/26 02:56:11;;;;;;;12.38;5.70;;;;;;;21.43;17.27;98740.63;5070718;28;20068;-81
2021/10/26 02:58:37;;;;;;;15.07;6.32;;;;;;;21.55;17.09;98743.03;5059875;28;20033;-81
2021/10/26 03:01:04;;;;;;;13.45;6.10;;;;;;;21.67;17.02;98737.81;5083220;28;20032;-82
2021/10/26 03:03:30;;;;;;;15.98;6.25;;;;;;;21.55;17.40;98741.03;5075488;28;20100;-82
2021/10/26 03:05:56;;;;;;;13.82;5.97;;;;;;;21.41;17.67;98745.81;5064882;28;20037;-82
2021/10/26 03:08:22;;;;;;;15.30;6.53;;;;;;;21.44;17.59;98740.25;5070454;28;20052;-82
2021/10/26 03:10:49;;;;;;;16.85;6.53;;;;;;;21.61;17.20;98744.22;5063046;28;20028;-82
2021/10/26 03:13:15;;;;;;;15.68;7.20;;;;;;;21.45;17.46;98743.84;5064443;28;20037;-82
2021/10/26 03:15:41;;;;;;;15.23;6.82;;;;;;;21.61;17.32;98739.41;5057410;28;20028;-82
2021/10/26 03:18:08;;;;;;;19.88;7.43;;;;;;;21.59;17.58;98750.19;5067100;28;20056;-82
2021/10/26 03:20:35;;;;;;;11.60;5.90;;;;;;;21.08;17.93;98753.41;5067931;28;20040;-82
2021/10/26 03:23:02;;;;;;;16.35;6.43;;;;;;;20.91;18.20;98750.59;5067529;28;20025;-82
2021/10/26 03:25:28;;;;;;;17.40;6.78;;;;;;;21.08;18.07;98750.63;5055018;28;20493;-82
2021/10/26 03:27:55;;;;;;;13.77;7.97;;;;;;;21.43;17.43;98749.00;5055492;28;20024;-82
2021/10/26 03:30:21;;;;;;;16.23;7.35;;;;;;;21.16;17.43;98746.66;5069484;28;20366;-82
2021/10/26 03:32:47;;;;;;;12.45;6.57;;;;;;;21.15;17.52;98744.22;5070104;28;20032;-82
2021/10/26 03:35:13;;;;;;;15.45;6.03;;;;;;;21.06;17.45;98747.44;5067064;28;20037;-82
2021/10/26 03:37:41;;;;;;;13.68;6.20;;;;;;;20.43;18.12;98750.84;5061541;28;20440;-82
2021/10/26 03:40:09;;;;;;;18.58;7.82;;;;;;;20.08;18.60;98759.03;5066224;28;20040;-82
2021/10/26 03:42:35;;;;;;;15.65;6.18;;;;;;;20.05;18.72;98767.41;5070495;28;20430;-82
2021/10/26 03:45:02;;;;;;;16.65;7.35;;;;;;;20.50;18.63;98756.47;5069381;28;20033;-82
2021/10/26 03:47:28;;;;;;;15.23;7.22;;;;;;;20.80;17.99;98761.72;5061195;28;20036;-82
2021/10/26 03:49:54;;;;;;;17.65;7.65;;;;;;;20.90;17.77;98766.53;5069490;28;20036;-82
2021/10/26 03:52:20;;;;;;;16.33;8.15;;;;;;;20.71;18.40;98764.09;5064959;28;20025;-82
2021/10/26 03:54:47;;;;;;;16.50;6.38;;;;;;;20.96;17.83;98759.34;5069386;28;20043;-82
2021/10/26 03:57:13;;;;;;;17.67;7.25;;;;;;;20.45;17.90;98756.84;5066011;28;20070;-82
2021/10/26 03:59:40;;;;;;;14.20;6.57;;;;;;;20.31;18.04;98767.13;5067726;28;20067;-82
2021/10/26 04:02:12;;;;;;;15.52;6.70;;;;;;;20.63;17.79;98754.88;5062949;28;20036;-82
2021/10/26 04:04:39;;;;;;;14.90;6.50;;;;;;;20.88;17.36;98760.53;5063754;28;20135;-82
2021/10/26 04:07:08;;;;;;;14.93;6.78;;;;;;;20.33;17.67;98764.75;5082567;28;20558;-82
2021/10/26 04:12:23;;;;;;;13.82;6.90;;;;;;;19.82;18.85;98756.50;5068075;28;20140;-82
2021/10/26 04:14:50;;;;;;;18.58;7.88;;;;;;;20.23;18.16;98751.56;5065829;28;20063;-82
2021/10/26 04:17:16;;;;;;;14.60;6.88;;;;;;;20.42;17.85;98756.84;5067814;28;20093;-82
2021/10/26 04:19:42;;;;;;;18.25;7.03;;;;;;;20.66;17.57;98762.47;5066433;28;20075;-82
2021/10/26 04:22:09;;;;;;;14.30;6.80;;;;;;;20.97;17.23;98754.56;5062241;28;20036;-81
2021/10/26 04:24:35;;;;;;;16.92;7.72;;;;;;;20.58;17.35;98751.69;5066439;28;20036;-82
2021/10/26 04:27:01;;;;;;;15.10;7.93;;;;;;;19.64;18.80;98756.41;5063030;28;20028;-83
2021/10/26 04:29:28;;;;;;;20.42;8.30;;;;;;;19.67;18.99;98757.59;5066675;28;20024;-85
2021/10/26 04:31:54;;;;;;;15.35;7.28;;;;;;;19.91;18.41;98754.16;5064868;28;20037;-82
2021/10/26 04:34:20;;;;;;;19.40;8.32;;;;;;;19.93;18.15;98752.56;5064938;28;20063;-84
2021/10/26 04:36:46;;;;;;;17.05;6.90;;;;;;;19.99;18.40;98759.41;5064020;28;20109;-84
2021/10/26 04:39:12;;;;;;;12.95;5.45;;;;;;;20.08;18.35;98764.63;5064884;28;20044;-83
2021/10/26 04:41:39;;;;;;;12.98;5.93;;;;;;;20.33;18.41;98761.94;5065891;28;20031;-84
2021/10/26 04:44:05;;;;;;;13.43;5.68;;;;;;;20.31;18.36;98756.78;5062877;28;20036;-84
2021/10/26 04:46:33;;;;;;;13.73;5.40;;;;;;;20.47;17.93;98764.78;5063421;28;20041;-83
2021/10/26 04:49:00;;;;;;;13.80;5.90;;;;;;;20.63;17.94;98765.28;5066637;28;20037;-83
2021/10/26 04:51:26;;;;;;;12.02;5.35;;;;;;;20.58;18.13;98769.22;5066879;28;20032;-83
2021/10/26 04:53:52;;;;;;;12.98;4.90;;;;;;;20.83;17.79;98765.72;5066709;28;20032;-85
2021/10/26 04:56:18;;;;;;;11.77;5.13;;;;;;;21.18;17.40;98768.56;5075420;28;20398;-86
2021/10/26 04:58:44;;;;;;;21.63;8.45;;;;;;;21.40;16.83;98766.59;5067360;28;20504;-85
2021/10/26 05:01:10;;;;;;;25.95;9.23;;;;;;;21.53;16.55;98763.00;5058460;28;20036;-86
2021/10/26 05:03:36;;;;;;;14.35;6.82;;;;;;;20.71;17.32;98761.28;5069800;28;20060;-86
2021/10/26 05:06:03;;;;;;;16.67;6.40;;;;;;;20.69;17.13;98752.53;5066126;28;20111;-86
2021/10/26 05:08:30;;;;;;;25.00;7.95;;;;;;;20.89;17.26;98758.53;5062198;28;20371;-86
2021/10/26 05:10:56;;;;;;;14.50;6.35;;;;;;;20.97;17.07;98760.94;5062515;28;20028;-85
2021/10/26 05:13:22;;;;;;;14.32;7.10;;;;;;;21.05;16.90;98764.59;5063767;28;20080;-85
2021/10/26 05:15:48;;;;;;;16.17;6.60;;;;;;;20.91;17.10;98761.75;5065229;28;20051;-82
2021/10/26 05:18:16;;;;;;;13.90;6.40;;;;;;;20.98;16.89;98761.75;5059501;28;20051;-82
2021/10/26 05:20:45;;;;;;;12.68;6.05;;;;;;;20.82;17.06;98764.91;5076298;28;20040;-81
2021/10/26 05:23:11;;;;;;;18.38;6.07;;;;;;;20.90;17.27;98774.09;5066798;28;20044;-83
2021/10/26 05:25:38;;;;;;;21.13;7.78;;;;;;;21.05;17.14;98776.53;5068506;28;20021;-82
2021/10/26 05:28:07;;;;;;;15.32;6.72;;;;;;;20.99;17.48;98785.66;5068862;28;20520;-82
2021/10/26 05:30:33;;;;;;;19.38;6.75;;;;;;;21.13;17.48;98771.75;5072366;28;20071;-82
2021/10/26 05:32:59;;;;;;;14.25;5.60;;;;;;;21.38;16.94;98774.59;5072488;28;20105;-82
2021/10/26 05:35:25;;;;;;;18.73;5.32;;;;;;;21.32;16.75;98774.16;5072528;28;20149;-82
2021/10/26 05:37:51;;;;;;;17.52;7.07;;;;;;;21.01;16.93;98777.69;5072816;28;20035;-82
2021/10/26 05:40:18;;;;;;;21.50;7.70;;;;;;;20.81;16.97;98777.28;5073160;28;20032;-82
2021/10/26 05:42:44;;;;;;;12.40;6.25;;;;;;;20.95;16.86;98785.69;5075890;28;20089;-82
2021/10/26 05:45:10;;;;;;;22.02;8.60;;;;;;;21.03;16.84;98790.06;5075806;28;20075;-82
2021/10/26 05:47:36;;;;;;;28.42;9.68;;;;;;;21.14;16.72;98781.75;5075308;28;20040;-82
2021/10/26 05:50:03;;;;;;;19.13;7.28;;;;;;;20.61;17.09;98785.19;5074869;28;20122;-82
2021/10/26 05:52:29;;;;;;;22.40;8.13;;;;;;;20.50;17.52;98789.94;5075566;28;20044;-82
2021/10/26 05:54:55;;;;;;;32.13;11.07;;;;;;;20.72;17.33;98792.78;5075685;28;20493;-82
2021/10/26 05:57:21;;;;;;;40.00;12.80;;;;;;;20.40;17.99;98787.88;5075684;28;20482;-82
2021/10/26 05:59:47;;;;;;;26.25;10.02;;;;;;;20.58;18.05;98790.75;5075669;28;20035;-83
2021/10/26 06:02:13;;;;;;;22.75;8.52;;;;;;;20.87;18.01;98786.84;5075627;28;20032;-82
2021/10/26 06:04:39;;;;;;;24.02;9.27;;;;;;;21.16;17.40;98790.53;5075671;28;20032;-82
2021/10/26 06:07:05;;;;;;;29.70;11.32;;;;;;;21.28;17.58;98793.72;5063858;28;20060;-83
2021/10/26 06:09:34;;;;;;;25.90;10.10;;;;;;;20.95;18.32;98796.03;5059180;28;20091;-83
2021/10/26 06:12:02;;;;;;;26.80;10.00;;;;;;;21.02;18.01;98801.63;5075923;28;20474;-83
2021/10/26 06:14:28;;;;;;;18.05;7.78;;;;;;;20.95;18.31;98804.41;5075590;28;20428;-83
2021/10/26 06:16:54;;;;;;;16.45;7.28;;;;;;;21.04;18.25;98814.03;5057344;28;20056;-83
2021/10/26 06:19:21;;;;;;;15.70;6.03;;;;;;;21.36;18.23;98808.47;5057144;28;20098;-83
2021/10/26 06:21:48;;;;;;;12.68;5.43;;;;;;;21.79;17.63;98806.50;5074967;28;20064;-82
2021/10/26 06:24:14;;;;;;;15.48;6.72;;;;;;;22.11;17.41;98795.25;5075159;28;20031;-83
2021/10/26 06:26:40;;;;;;;16.50;7.25;;;;;;;22.38;17.22;98799.97;5074272;28;20077;-83
2021/10/26 06:29:07;;;;;;;18.67;8.23;;;;;;;22.55;16.89;98803.91;5090626;28;20491;-83
2021/10/26 06:31:34;;;;;;;20.73;9.63;;;;;;;22.69;17.15;98803.88;5095345;28;20028;-83
2021/10/26 06:34:01;;;;;;;19.75;8.77;;;;;;;22.87;16.90;98815.75;5077179;28;20114;-83
2021/10/26 06:36:27;;;;;;;28.85;11.57;;;;;;;22.93;17.09;98819.75;5094910;28;20081;-83
2021/10/26 06:38:53;;;;;;;34.33;13.60;;;;;;;22.93;17.32;98824.56;5095509;28;20401;-83
2021/10/26 06:41:20;;;;;;;27.02;11.98;;;;;;;22.83;17.14;98819.78;5076978;28;20541;-83
2021/10/26 06:43:47;;;;;;;27.15;11.10;;;;;;;22.87;17.08;98820.59;5069473;28;20394;-83
2021/10/26 06:46:14;;;;;;;18.90;9.35;;;;;;;23.14;17.00;98824.44;5077632;28;20021;-83
2021/10/26 06:48:40;;;;;;;27.33;11.13;;;;;;;23.29;17.12;98825.94;5074535;28;20036;-83
2021/10/26 06:51:06;;;;;;;20.65;9.15;;;;;;;22.64;17.72;98827.47;5074913;28;20405;-83
2021/10/26 06:53:36;;;;;;;18.20;8.85;;;;;;;22.14;18.43;98828.84;5074425;28;20040;-83
2021/10/26 06:56:06;;;;;;;19.67;9.43;;;;;;;21.85;18.66;98830.88;5074477;28;20039;-83
2021/10/26 06:58:32;;;;;;;16.10;8.77;;;;;;;21.63;19.22;98834.84;5074607;28;20440;-83
2021/10/26 07:00:58;;;;;;;16.13;8.32;;;;;;;21.80;19.29;98831.22;5074289;28;20036;-83
2021/10/26 07:03:24;;;;;;;20.17;8.80;;;;;;;22.09;19.15;98834.81;5056973;28;20036;-83
2021/10/26 07:05:50;;;;;;;15.27;8.00;;;;;;;22.68;18.67;98824.69;5061567;28;20067;-83
2021/10/26 07:08:16;;;;;;;16.58;8.13;;;;;;;23.00;18.50;98828.13;5054682;28;20033;-83
2021/10/26 07:10:42;;;;;;;15.30;7.55;;;;;;;23.36;18.22;98826.69;5054611;28;20074;-83
2021/10/26 07:13:08;;;;;;;17.27;7.95;;;;;;;23.74;17.73;98824.78;5054220;28;20032;-83
2021/10/26 07:15:34;;;;;;;20.95;9.32;;;;;;;24.00;17.78;98831.78;5054091;28;20402;-83
2021/10/26 07:18:00;;;;;;;19.33;8.30;;;;;;;23.88;17.81;98827.47;5062170;28;20040;-83
2021/10/26 07:20:27;;;;;;;19.17;8.75;;;;;;;24.04;17.95;98824.09;5053741;28;20033;-83
2021/10/26 07:22:54;;;;;;;19.80;8.95;;;;;;;24.34;17.63;98831.88;5069812;28;20037;-83
2021/10/26 07:25:21;;;;;;;17.80;9.02;;;;;;;24.58;17.76;98828.75;5074088;28;20039;-83
2021/10/26 07:27:49;;;;;;;20.08;9.48;;;;;;;24.71;17.47;98829.78;5063617;28;20033;-83
2021/10/26 07:30:15;;;;;;;18.38;9.13;;;;;;;24.88;17.38;98824.41;5054307;28;20053;-83
2021/10/26 07:32:42;;;;;;;22.27;9.38;;;;;;;25.12;17.43;98829.69;5051609;28;20039;-83
2021/10/26 07:35:09;;;;;;;16.77;9.02;;;;;;;25.34;17.29;98830.94;5074096;28;20032;-83
2021/10/26 07:37:42;;;;;;;17.05;9.25;;;;;;;25.54;17.27;98825.44;5072862;28;20032;-82
2021/10/26 07:40:09;;;;;;;17.65;8.68;;;;;;;25.70;17.61;98831.22;5068258;28;20378;-83
2021/10/26 07:42:35;;;;;;;18.45;9.18;;;;;;;25.92;17.18;98823.22;5074120;28;20052;-83
2021/10/26 07:45:01;;;;;;;18.38;9.13;;;;;;;25.83;17.38;98820.16;5071228;28;20040;-83
2021/10/26 07:47:27;;;;;;;16.58;8.60;;;;;;;25.85;17.69;98814.91;5056138;28;20047;-83
2021/10/26 07:49:55;;;;;;;12.88;6.38;;;;;;;26.13;17.78;98817.22;5073382;28;20075;-83
2021/10/26 07:52:22;;;;;;;11.73;6.50;;;;;;;26.38;17.43;98814.72;5075976;28;20031;-83
2021/10/26 07:54:55;;;;;;;10.07;6.03;;;;;;;26.65;16.96;98814.59;5093770;28;20389;-83
2021/10/26 07:57:22;;;;;;;11.90;6.32;;;;;;;26.74;16.83;98821.25;5085350;28;20028;-83
2021/10/26 07:59:49;;;;;;;11.25;5.80;;;;;;;26.69;17.58;98810.47;5073431;28;20489;-83
2021/10/26 08:02:16;;;;;;;9.98;6.03;;;;;;;26.52;18.42;98811.63;5073255;28;20028;-83
2021/10/26 08:04:44;;;;;;;11.32;5.35;;;;;;;26.25;18.25;98808.16;5058593;28;20040;-83
2021/10/26 08:07:11;;;;;;;9.02;4.85;;;;;;;26.50;18.71;98807.66;5053330;28;20029;-83
2021/10/26 08:09:38;;;;;;;11.48;5.60;;;;;;;26.07;19.73;98811.25;5066818;28;20029;-83
2021/10/26 08:12:05;;;;;;;8.40;4.43;;;;;;;26.00;19.28;98816.22;5073511;28;20035;-83
2021/10/26 08:14:31;;;;;;;9.60;4.68;;;;;;;25.89;18.43;98818.44;5073285;28;20056;-83
2021/10/26 08:16:57;;;;;;;7.68;4.80;;;;;;;25.82;18.69;98815.75;5073233;28;20075;-83
2021/10/26 08:19:23;;;;;;;8.50;4.30;;;;;;;26.01;18.68;98813.00;5072742;28;20037;-83
2021/10/26 08:21:50;;;;;;;7.00;3.80;;;;;;;26.40;17.85;98811.47;5073096;28;20028;-83
2021/10/26 08:24:22;;;;;;;7.10;3.78;;;;;;;26.57;17.94;98813.94;5073158;28;20051;-83
2021/10/26 08:26:59;;;;;;;7.07;3.92;;;;;;;26.66;19.03;98799.28;5073187;28;20029;-83
2021/10/26 08:35:18;;;;;;;10.07;4.68;;;;;;;24.96;19.71;98804.22;5039150;28;20090;-83
2021/10/26 08:37:49;;;;;;;10.77;5.07;;;;;;;25.37;19.12;98812.44;5070391;28;20496;-83
2021/10/26 08:40:20;;;;;;;7.15;4.38;;;;;;;25.80;18.65;98804.13;5069924;28;20477;-83
2021/10/26 08:42:47;;;;;;;7.57;3.97;;;;;;;26.40;18.44;98800.22;5072766;28;20035;-83
2021/10/26 08:45:14;;;;;;;8.65;4.32;;;;;;;26.41;17.50;98805.44;5073375;28;20436;-83
2021/10/26 08:47:41;;;;;;;8.43;3.60;;;;;;;26.05;18.43;98807.28;5054479;28;20075;-83
2021/10/26 08:50:08;;;;;;;5.68;3.55;;;;;;;26.11;17.33;98808.44;5072761;28;20021;-83
2021/10/26 08:52:34;;;;;;;6.45;2.92;;;;;;;25.75;17.96;98810.25;5072803;28;20482;-83
2021/10/26 08:55:01;;;;;;;6.68;3.67;;;;;;;25.45;18.05;98807.53;5072658;28;20477;-83
2021/10/26 08:57:27;;;;;;;9.10;3.40;;;;;;;25.30;18.13;98807.72;5072644;28;20031;-83
2021/10/26 08:59:58;;;;;;;8.15;3.50;;;;;;;25.58;17.94;98817.75;5072703;28;20035;-83
2021/10/26 09:02:35;;;;;;;3.75;2.30;;;;;;;26.63;17.32;98802.94;5079107;28;20049;-83
2021/10/26 09:05:08;;;;;;;4.78;2.20;;;;;;;27.33;16.48;98794.97;5053052;28;20043;-83
2021/10/26 09:07:36;;;;;;;5.22;2.35;;;;;;;27.96;16.62;98792.59;5053066;28;20561;-83
2021/10/26 09:10:14;;;;;;;4.22;1.88;;;;;;;28.19;15.67;98789.59;5052716;28;20108;-83
2021/10/26 09:17:59;;;;;;;2.97;1.90;;;;;;;29.23;14.95;98798.25;5073176;28;20051;-83
2021/10/26 09:20:29;;;;;;;2.25;1.35;;;;;;;29.55;15.00;98802.88;5076268;28;20115;-83
2021/10/26 09:22:58;;;;;;;2.70;1.50;;;;;;;29.49;14.14;98812.41;5058977;28;20108;-83
2021/10/26 09:25:36;;;;;;;4.28;2.17;;;;;;;28.84;13.72;98806.31;5076309;28;20024;-83
2021/10/26 09:28:14;;;;;;;2.95;1.40;;;;;;;28.63;14.74;98797.25;5062951;28;20064;-83
2021/10/26 09:30:42;;;;;;;3.63;2.15;;;;;;;28.53;14.17;98791.84;5038161;28;20467;-83
2021/10/26 09:33:08;;;;;;;3.72;2.63;;;;;;;27.08;15.81;98789.91;5073135;28;20025;-83
2021/10/26 09:35:35;;;;;;;2.40;1.45;;;;;;;27.85;15.77;98797.72;5083401;28;20040;-83
2021/10/26 09:38:03;;;;;;;2.88;1.65;;;;;;;28.56;16.03;98796.63;5096696;28;20442;-83
2021/10/26 09:40:42;;;;;;;1.75;1.40;;;;;;;28.88;15.21;98792.88;5096358;28;20119;-83
2021/10/26 09:43:11;;;;;;;1.55;1.17;;;;;;;29.68;14.58;98788.72;5096233;28;20032;-83
2021/10/26 09:45:38;;;;;;;2.03;1.30;;;;;;;29.99;14.78;98790.47;5095972;28;20059;-83
2021/10/26 09:48:23;;;;;;;2.65;1.63;;;;;;;29.41;16.52;98795.66;5096497;28;20040;-83
2021/10/26 09:51:00;;;;;;;2.58;1.58;;;;;;;29.97;14.24;98789.34;5089958;28;20166;-83
2021/10/26 09:53:32;;;;;;;2.65;1.42;;;;;;;30.36;15.48;98783.13;5093905;28;20020;-83
2021/10/26 09:56:02;;;;;;;1.95;1.25;;;;;;;30.64;15.13;98781.28;5075787;28;20040;-83
2021/10/26 09:58:29;;;;;;;2.58;1.58;;;;;;;29.17;13.04;98785.88;5075682;28;20386;-83
2021/10/26 10:01:10;;;;;;;1.52;1.15;;;;;;;29.49;15.42;98790.56;5070354;28;20025;-83
2021/10/26 10:03:36;;;;;;;2.72;0.90;;;;;;;30.26;15.07;98783.47;5056521;28;20375;-83
2021/10/26 10:06:10;;;;;;;3.05;1.10;;;;;;;30.14;13.80;98784.31;5055617;28;20545;-83
2021/10/26 10:08:38;;;;;;;1.80;1.00;;;;;;;30.55;14.39;98776.31;5068910;28;20070;-83
2021/10/26 10:11:07;;;;;;;1.63;1.10;;;;;;;31.14;14.29;98765.97;5075548;28;20478;-83
2021/10/26 10:13:47;;;;;;;1.45;1.08;;;;;;;30.91;14.25;98761.63;5075426;28;20490;-82
2021/10/26 10:16:18;;;;;;;2.33;1.40;;;;;;;30.73;13.46;98759.47;5075420;28;20389;-81
2021/10/26 10:18:48;;;;;;;2.40;1.38;;;;;;;29.64;14.07;98763.34;5057585;28;20033;-81
2021/10/26 10:21:17;;;;;;;1.60;1.17;;;;;;;28.08;14.39;98756.00;5073098;28;20079;-81
2021/10/26 10:23:50;;;;;;;1.95;1.20;;;;;;;28.69;14.07;98750.22;5075315;28;20032;-81
2021/10/26 10:26:17;;;;;;;1.25;0.93;;;;;;;29.47;14.01;98758.31;5072589;28;20028;-81
2021/10/26 10:28:48;;;;;;;2.33;1.40;;;;;;;29.33;13.65;98754.69;5053452;28;20483;-81
2021/10/26 10:31:19;;;;;;;2.47;1.23;;;;;;;29.86;13.99;98746.47;5057230;28;20111;-81
2021/10/26 10:33:48;;;;;;;4.72;1.58;;;;;;;28.31;13.89;98740.06;5040856;28;20033;-81
2021/10/26 10:36:17;;;;;;;1.27;1.17;;;;;;;27.85;14.63;98744.09;5075314;28;20033;-81
2021/10/26 10:38:44;;;;;;;2.15;1.20;;;;;;;28.65;13.54;98737.44;5074996;28;20036;-81
2021/10/26 10:41:23;;;;;;;2.60;1.30;;;;;;;28.45;14.38;98739.63;5056841;28;20033;-81
2021/10/26 10:43:51;;;;;;;1.90;1.10;;;;;;;28.63;13.75;98734.28;5075196;28;20033;-81
2021/10/26 10:46:40;;;;;;;4.20;1.50;;;;;;;29.41;13.00;98729.78;5068709;28;20035;-81
2021/10/26 10:49:22;;;;;;;1.77;1.15;;;;;;;30.41;13.76;98725.06;5070442;28;20044;-81
2021/10/26 10:51:55;;;;;;;2.20;0.80;;;;;;;31.25;13.75;98720.97;5072584;28;20028;-81
2021/10/26 10:54:37;;;;;;;1.38;0.90;;;;;;;31.60;11.63;98718.72;5074271;28;20067;-81
2021/10/26 10:57:35;;;;;;;2.08;1.38;;;;;;;30.18;12.67;98712.13;5074722;28;20074;-81
2021/10/26 11:00:24;;;;;;;2.88;1.73;;;;;;;29.82;13.24;98720.31;5069343;28;20040;-81
2021/10/26 11:02:52;;;;;;;3.22;1.55;;;;;;;29.46;13.31;98711.44;5074387;28;20039;-81
2021/10/26 11:05:34;;;;;;;4.97;1.70;;;;;;;29.56;14.03;98716.75;5056528;28;20040;-81
2021/10/26 11:08:04;;;;;;;3.42;2.17;;;;;;;27.77;15.70;98712.44;5074259;28;20021;-81
2021/10/26 11:10:48;;;;;;;3.63;2.05;;;;;;;26.83;16.11;98709.97;5074364;28;20035;-81
2021/10/26 11:13:32;;;;;;;5.60;1.95;;;;;;;26.57;15.80;98704.09;5073930;28;20382;-81
2021/10/26 11:16:03;;;;;;;3.90;2.05;;;;;;;27.87;15.60;98694.44;5071737;28;20024;-81
2021/10/26 11:18:32;;;;;;;;;;;;;;;27.29;15.33;98687.09;5055054;28;20037;-81
2021/10/26 11:20:59;;;;;;;3.90;2.38;;;;;;;26.67;16.89;98691.00;5054021;28;19924;-81
2021/10/26 11:26:47;;;;;;;2.95;2.05;;;;;;;28.02;15.03;98689.22;5053820;28;20098;-81
2021/10/26 11:29:28;;;;;;;2.78;1.73;;;;;;;27.63;14.68;98684.66;5055081;28;20479;-81
2021/10/26 11:31:54;;;;;;;4.22;2.25;;;;;;;27.14;15.91;98685.88;5072757;28;20013;-81
2021/10/26 11:34:26;;;;;;;3.05;1.98;;;;;;;27.92;14.48;98676.16;5073276;28;20033;-81
2021/10/26 11:37:06;;;;;;;2.92;1.83;;;;;;;28.72;13.74;98681.50;5073464;28;20433;-81
2021/10/26 11:39:33;;;;;;;3.03;1.50;;;;;;;29.58;14.06;98673.81;5073212;28;20032;-81
2021/10/26 11:42:00;;;;;;;3.78;2.28;;;;;;;28.02;15.18;98675.13;5055556;28;20513;-81
2021/10/26 11:44:27;;;;;;;3.45;2.00;;;;;;;28.17;15.22;98673.44;5073561;28;20116;-81
2021/10/26 11:46:54;;;;;;;2.83;2.28;;;;;;;28.91;15.00;98676.88;5055717;28;20035;-82
2021/10/26 11:49:23;;;;;;;4.05;2.15;;;;;;;27.60;16.21;98679.09;5072511;28;20025;-81